Time;durP1;ratioP1;P1;durP2;ratioP2;P2;SDS_P1;SDS_P2;PMS_P1;PMS_P2;Temp;Humidity;BMP_temperature;BMP_pressure;BME280_temperature;BME280_humidity;BME280_pressure;Samples;Min_cycle;Max_cycle;Signal;HPM_P1;HPM_P2
2022/12/06 00:00:51;;;;;;;23.58;8.52;;;;;;;3.24;100.00;101710.44;2071331;28;32313;-73
2022/12/06 00:01:55;;;;;;;18.95;8.15;;;;;;;3.23;100.00;101709.53;2071620;28;34518;-72
2022/12/06 00:02:56;;;;;;;19.10;8.05;;;;;;;3.24;100.00;101708.66;2071427;28;37034;-72
2022/12/06 00:04:10;;;;;;;21.25;7.80;;;;;;;3.25;100.00;101706.94;2071616;28;40604;-72
2022/12/06 00:05:12;;;;;;;18.30;8.00;;;;;;;3.25;100.00;101706.94;2071937;28;35343;-72
2022/12/06 00:06:19;;;;;;;17.05;7.80;;;;;;;3.26;100.00;101711.34;2071755;28;34463;-72
2022/12/06 00:07:21;;;;;;;24.42;8.00;;;;;;;3.26;100.00;101714.00;2072420;28;35749;-72
2022/12/06 00:08:24;;;;;;;18.80;8.77;;;;;;;3.26;100.00;101714.00;2071360;28;38023;-72
2022/12/06 00:09:31;;;;;;;19.45;8.23;;;;;;;3.25;100.00;101707.81;2071452;28;32143;-72
2022/12/06 00:10:36;;;;;;;17.30;8.02;;;;;;;3.27;100.00;101710.50;2062550;28;38684;-72
2022/12/06 00:11:37;;;;;;;18.85;8.43;;;;;;;3.27;100.00;101709.56;2064012;28;37936;-71
2022/12/06 00:12:39;;;;;;;16.10;8.32;;;;;;;3.27;100.00;101709.56;2071711;28;34047;-72
2022/12/06 00:13:42;;;;;;;18.55;8.40;;;;;;;3.27;100.00;101705.19;2071700;28;36651;-70
2022/12/06 00:14:44;;;;;;;18.58;8.63;;;;;;;3.25;100.00;101712.22;2071624;28;36341;-73
2022/12/06 00:15:45;;;;;;;16.60;7.80;;;;;;;3.26;100.00;101716.63;2071755;28;31154;-72
2022/12/06 00:16:50;;;;;;;20.60;8.05;;;;;;;3.25;100.00;101712.22;2071812;28;32497;-73
2022/12/06 00:17:52;;;;;;;17.67;8.40;;;;;;;3.24;100.00;101707.78;2071917;28;36804;-73
2022/12/06 00:18:54;;;;;;;22.02;8.70;;;;;;;3.23;100.00;101711.28;2071386;28;31881;-73
2022/12/06 00:19:56;;;;;;;19.25;8.50;;;;;;;3.23;100.00;101708.63;2071682;28;32593;-73
2022/12/06 00:21:11;;;;;;;22.60;8.70;;;;;;;3.23;100.00;101704.25;2071322;28;35207;-73
2022/12/06 00:22:15;;;;;;;22.83;8.93;;;;;;;3.24;100.00;101706.00;2062878;28;38727;-73
2022/12/06 00:23:17;;;;;;;22.17;9.20;;;;;;;3.25;100.00;101706.94;2063979;28;20951;-73
2022/12/06 00:24:21;;;;;;;23.65;9.38;;;;;;;3.25;100.00;101697.22;2070913;28;30831;-72
2022/12/06 00:25:23;;;;;;;22.00;9.25;;;;;;;3.25;100.00;101701.63;2062724;28;38312;-71
2022/12/06 00:26:25;;;;;;;22.42;8.73;;;;;;;3.26;100.00;101703.41;2063898;28;36891;-72
2022/12/06 00:27:27;;;;;;;22.08;9.07;;;;;;;3.27;100.00;101699.00;2062420;28;34992;-72
2022/12/06 00:28:29;;;;;;;25.50;9.25;;;;;;;3.25;100.00;101706.94;2062971;28;28420;-72
2022/12/06 00:29:31;;;;;;;21.05;9.05;;;;;;;3.26;100.00;101706.03;2071358;28;38052;-72
2022/12/06 00:30:34;;;;;;;22.90;9.20;;;;;;;3.26;100.00;101703.41;2071351;28;38099;-71
2022/12/06 00:31:36;;;;;;;21.55;8.98;;;;;;;3.26;100.00;101700.75;2071303;28;33177;-72
2022/12/06 00:32:38;;;;;;;22.33;8.70;;;;;;;3.25;100.00;101701.63;2071778;28;32608;-72
2022/12/06 00:33:41;;;;;;;24.00;9.38;;;;;;;3.26;100.00;101698.09;2071709;28;31474;-72
2022/12/06 00:34:45;;;;;;;23.65;8.65;;;;;;;3.26;100.00;101700.75;2071363;28;29415;-72
2022/12/06 00:36:03;;;;;;;21.15;9.25;;;;;;;3.25;100.00;101701.63;2071243;28;37592;-72
2022/12/06 00:37:05;;;;;;;21.30;8.48;;;;;;;3.26;100.00;101692.81;2072614;28;20143;-72
2022/12/06 00:38:07;;;;;;;24.63;8.88;;;;;;;3.24;100.00;101692.78;2071286;28;34351;-71
2022/12/06 00:39:12;;;;;;;23.83;9.63;;;;;;;3.26;100.00;101698.09;2071578;28;29733;-72
2022/12/06 00:40:13;;;;;;;20.77;9.20;;;;;;;3.26;100.00;101698.09;2071987;28;20050;-72
2022/12/06 00:41:18;;;;;;;21.33;9.40;;;;;;;3.26;100.00;101692.81;2071529;28;38922;-72
2022/12/06 00:42:23;;;;;;;22.52;9.70;;;;;;;3.27;100.00;101699.91;2071509;28;32380;-71
2022/12/06 00:43:25;;;;;;;22.83;9.73;;;;;;;3.25;100.00;101693.69;2071560;28;30546;-73
2022/12/06 00:44:27;;;;;;;22.05;8.52;;;;;;;3.24;100.00;101697.19;2071184;28;28936;-72
2022/12/06 00:45:30;;;;;;;23.80;8.57;;;;;;;3.26;100.00;101695.47;2072378;28;20876;-73
2022/12/06 00:46:34;;;;;;;23.88;9.20;;;;;;;3.24;100.00;101700.72;2071527;28;32265;-71
2022/12/06 00:47:35;;;;;;;19.48;9.30;;;;;;;3.27;100.00;101699.91;2071816;28;27061;-72
2022/12/06 00:48:37;;;;;;;21.58;9.20;;;;;;;3.26;100.00;101698.09;2071153;28;32475;-73
2022/12/06 00:49:39;;;;;;;23.77;9.15;;;;;;;3.26;100.00;101703.41;2071592;28;30568;-71
2022/12/06 00:50:40;;;;;;;18.58;8.73;;;;;;;3.26;100.00;101698.09;2072221;28;20873;-73
2022/12/06 00:51:42;;;;;;;23.92;9.52;;;;;;;3.27;100.00;101699.91;2071543;28;34466;-74
2022/12/06 00:52:44;;;;;;;25.52;9.77;;;;;;;3.26;100.00;101706.03;2071165;28;29411;-71
2022/12/06 00:53:47;;;;;;;23.75;9.27;;;;;;;3.26;100.00;101698.09;2071209;28;34551;-73
2022/12/06 00:54:54;;;;;;;18.33;8.77;;;;;;;3.26;100.00;101703.41;2071378;28;38816;-71
2022/12/06 00:55:58;;;;;;;22.25;9.55;;;;;;;3.27;100.00;101699.91;2071946;28;20103;-73
2022/12/06 00:57:02;;;;;;;21.88;9.32;;;;;;;3.26;100.00;101692.81;2071134;28;41476;-73
2022/12/06 00:58:04;;;;;;;26.05;9.65;;;;;;;3.27;100.00;101705.19;2071190;28;34028;-73
2022/12/06 00:59:06;;;;;;;23.55;9.10;;;;;;;3.26;100.00;101703.41;2071078;28;40994;-73
2022/12/06 01:00:08;;;;;;;22.52;8.75;;;;;;;3.26;100.00;101698.09;2072267;28;20049;-72
2022/12/06 01:01:14;;;;;;;23.15;9.15;;;;;;;3.26;100.00;101692.81;2071489;28;30555;-72
2022/12/06 01:02:16;;;;;;;19.70;9.55;;;;;;;3.25;100.00;101696.34;2062838;28;37527;-72
2022/12/06 01:03:18;;;;;;;20.55;9.80;;;;;;;3.27;100.00;101699.91;2062978;28;34157;-72
2022/12/06 01:04:19;;;;;;;19.67;8.85;;;;;;;3.25;100.00;101699.00;2071211;28;38127;-72
2022/12/06 01:05:21;;;;;;;19.45;8.93;;;;;;;3.25;100.00;101693.69;2071896;28;23417;-72
2022/12/06 01:06:32;;;;;;;19.70;9.50;;;;;;;3.25;100.00;101693.69;2071571;28;32560;-72
2022/12/06 01:07:33;;;;;;;20.75;9.85;;;;;;;3.24;100.00;101695.44;2072492;28;37886;-72
2022/12/06 01:08:37;;;;;;;18.20;9.13;;;;;;;3.26;100.00;101695.47;2073226;28;27655;-72
2022/12/06 01:09:39;;;;;;;20.50;9.23;;;;;;;3.26;100.00;101695.47;2072315;28;36934;-73
2022/12/06 01:10:41;;;;;;;21.90;9.18;;;;;;;3.23;100.00;101695.41;2073414;28;20043;-72
2022/12/06 01:11:43;;;;;;;25.83;9.40;;;;;;;3.23;100.00;101698.03;2072773;28;39116;-72
2022/12/06 01:12:45;;;;;;;17.95;9.18;;;;;;;3.25;100.00;101693.69;2072998;28;31370;-72
2022/12/06 01:13:47;;;;;;;20.10;9.23;;;;;;;3.23;100.00;101692.75;2072758;28;33403;-71
2022/12/06 01:14:49;;;;;;;19.48;8.88;;;;;;;3.23;100.00;101698.97;2072869;28;39483;-73
2022/12/06 01:15:53;;;;;;;18.00;8.18;;;;;;;3.22;100.00;101691.88;2073318;28;20045;-71
2022/12/06 01:16:54;;;;;;;18.05;8.95;;;;;;;3.23;100.00;101690.09;2072354;28;37593;-72
2022/12/06 01:17:57;;;;;;;18.92;8.63;;;;;;;3.23;100.00;101687.47;2072634;28;33630;-71
2022/12/06 01:19:01;;;;;;;17.00;9.05;;;;;;;3.22;100.00;101691.88;2072711;28;36625;-73
2022/12/06 01:20:07;;;;;;;19.25;8.90;;;;;;;3.23;100.00;101696.31;2073280;28;20793;-71
2022/12/06 01:21:14;;;;;;;17.95;8.15;;;;;;;3.23;100.00;101692.75;2072532;28;35266;-71
2022/12/06 01:22:19;;;;;;;18.50;8.63;;;;;;;3.22;100.00;101686.56;2073520;28;20038;-72
2022/12/06 01:23:21;;;;;;;19.85;8.95;;;;;;;3.22;100.00;101690.97;2072774;28;32063;-71
2022/12/06 01:24:22;;;;;;;20.65;9.55;;;;;;;3.23;100.00;101695.41;2073227;28;20050;-73
2022/12/06 01:25:25;;;;;;;19.17;8.35;;;;;;;3.23;100.00;101690.09;2073234;28;20045;-73
2022/12/06 01:26:31;;;;;;;22.95;9.60;;;;;;;3.24;100.00;101689.25;2072997;28;33728;-74
2022/12/06 01:27:35;;;;;;;18.42;8.32;;;;;;;3.23;100.00;101691.03;2063543;28;35603;-73
2022/12/06 01:28:39;;;;;;;22.70;9.02;;;;;;;3.22;100.00;101685.69;2064422;28;35454;-73
2022/12/06 01:29:43;;;;;;;17.42;8.98;;;;;;;3.23;100.00;101687.47;2072804;28;33073;-73
2022/12/06 01:30:45;;;;;;;21.17;9.18;;;;;;;3.24;100.00;101686.59;2072554;28;32658;-73
2022/12/06 01:31:47;;;;;;;18.52;8.35;;;;;;;3.24;100.00;101683.97;2072784;28;32798;-73
2022/12/06 01:32:48;;;;;;;17.58;7.82;;;;;;;3.24;100.00;101690.13;2072677;28;28934;-73
2022/12/06 01:33:50;;;;;;;17.20;8.23;;;;;;;3.24;100.00;101689.25;2072925;28;32846;-74
2022/12/06 01:34:55;;;;;;;19.35;8.93;;;;;;;3.25;100.00;101685.75;2073142;28;20034;-73
2022/12/06 01:36:00;;;;;;;16.95;8.48;;;;;;;3.24;100.00;101689.25;2072186;28;32763;-73
2022/12/06 01:37:01;;;;;;;18.40;8.65;;;;;;;3.24;100.00;101689.25;2072902;28;30619;-73
2022/12/06 01:38:03;;;;;;;18.25;8.88;;;;;;;3.24;100.00;101683.97;2072386;28;35689;-73
2022/12/06 01:39:09;;;;;;;15.55;8.25;;;;;;;3.25;100.00;101686.63;2072516;28;33178;-73
2022/12/06 01:40:12;;;;;;;19.67;8.90;;;;;;;3.25;100.00;101685.75;2073019;28;20061;-73
2022/12/06 01:41:14;;;;;;;20.15;8.25;;;;;;;3.26;100.00;101684.88;2073512;28;20038;-74
2022/12/06 01:42:16;;;;;;;19.48;8.77;;;;;;;3.25;100.00;101686.63;2072541;28;35568;-73
2022/12/06 01:43:39;;;;;;;19.08;8.20;;;;;;;3.24;100.00;101682.19;2063857;28;34190;-73
2022/12/06 01:44:44;;;;;;;16.17;8.52;;;;;;;3.26;100.00;101684.88;2067215;28;33847;-74
2022/12/06 01:45:46;;;;;;;21.48;8.73;;;;;;;3.25;100.00;101685.75;2073502;28;20891;-73
2022/12/06 01:46:48;;;;;;;17.95;8.93;;;;;;;3.24;100.00;101683.97;2073111;28;20181;-73
2022/12/06 01:47:50;;;;;;;17.77;8.27;;;;;;;3.24;100.00;101678.66;2072465;28;38479;-73
2022/12/06 01:49:01;;;;;;;17.30;8.55;;;;;;;3.24;100.00;101683.97;2072666;28;32263;-73
2022/12/06 01:50:13;;;;;;;15.32;8.68;;;;;;;3.25;100.00;101685.75;2063950;28;34249;-73
2022/12/06 01:51:17;;;;;;;19.58;7.82;;;;;;;3.25;100.00;101686.63;2065950;28;39046;-72
2022/12/06 01:52:24;;;;;;;20.65;9.38;;;;;;;3.26;100.00;101682.22;2071684;28;28504;-73
2022/12/06 01:53:26;;;;;;;20.52;8.70;;;;;;;3.26;100.00;101687.53;2072320;28;28044;-73
2022/12/06 01:54:28;;;;;;;19.20;8.68;;;;;;;3.25;100.00;101688.41;2071836;28;36057;-73
2022/12/06 01:55:35;;;;;;;19.10;9.70;;;;;;;3.27;100.00;101678.75;2063441;28;31253;-72
2022/12/06 01:56:39;;;;;;;17.83;9.13;;;;;;;3.26;100.00;101684.88;2064780;28;39235;-73
2022/12/06 01:57:42;;;;;;;24.15;9.23;;;;;;;3.27;100.00;101686.69;2064970;28;20877;-73
2022/12/06 01:58:47;;;;;;;19.55;9.05;;;;;;;3.25;100.00;101686.63;2064417;28;27837;-73
2022/12/06 01:59:48;;;;;;;20.25;9.32;;;;;;;3.26;100.00;101690.16;2072043;28;31012;-73
2022/12/06 02:00:50;;;;;;;17.70;9.40;;;;;;;3.25;100.00;101680.47;2072589;28;28472;-73
2022/12/06 02:01:53;;;;;;;19.02;9.90;;;;;;;3.26;100.00;101687.53;2063453;28;33076;-74
2022/12/06 02:02:59;;;;;;;19.92;9.70;;;;;;;3.27;100.00;101680.47;2064935;28;20085;-73
2022/12/06 02:04:01;;;;;;;19.35;9.55;;;;;;;3.27;100.00;101691.97;2064030;28;35699;-73
2022/12/06 02:05:05;;;;;;;23.85;9.93;;;;;;;3.27;100.00;101684.03;2064379;28;35450;-73
2022/12/06 02:06:08;;;;;;;22.00;9.50;;;;;;;3.27;100.00;101686.69;2064050;28;27386;-73
2022/12/06 02:07:11;;;;;;;17.70;9.27;;;;;;;3.27;100.00;101684.03;2063954;28;33704;-73
2022/12/06 02:08:13;;;;;;;19.08;9.98;;;;;;;3.26;100.00;101682.22;2064296;28;20039;-73
2022/12/06 02:09:16;;;;;;;19.77;9.63;;;;;;;3.27;100.00;101673.44;2055760;28;35268;-73
2022/12/06 02:10:18;;;;;;;23.83;9.60;;;;;;;3.28;100.00;101682.25;2056330;28;31488;-73
2022/12/06 02:11:20;;;;;;;20.67;9.20;;;;;;;3.27;100.00;101684.03;2063725;28;33645;-73
2022/12/06 02:12:56;;;;;;;20.33;9.68;;;;;;;3.28;100.00;101676.97;2072522;28;34102;-73
2022/12/06 02:14:03;;;;;;;16.85;8.45;;;;;;;3.27;100.00;101678.75;2063873;28;28951;-73
2022/12/06 02:15:06;;;;;;;17.05;8.77;;;;;;;3.26;100.00;101676.94;2068543;28;32344;-73
2022/12/06 02:16:38;;;;;;;21.95;9.60;;;;;;;3.26;100.00;101671.66;2063324;28;32695;-72
2022/12/06 02:17:46;;;;;;;17.90;8.25;;;;;;;3.27;100.00;101673.44;2068438;28;29531;-73
2022/12/06 02:19:33;;;;;;;16.35;9.25;;;;;;;3.24;100.00;101663.66;2072234;28;20034;-73
2022/12/06 02:21:08;;;;;;;18.20;8.50;;;;;;;3.25;100.00;101672.53;2072261;28;34249;-73
2022/12/06 02:22:35;;;;;;;16.42;9.05;;;;;;;3.25;100.00;101664.59;2063510;28;34342;-73
2022/12/06 02:24:05;;;;;;;17.67;8.75;;;;;;;3.24;100.00;101665.44;2071759;28;34395;-72
2022/12/06 02:25:50;;;;;;;18.83;9.15;;;;;;;3.25;100.00;101670.75;2063977;28;32087;-72
2022/12/06 02:27:10;;;;;;;19.45;8.38;;;;;;;3.26;100.00;101671.66;2063701;28;34192;-72
2022/12/06 02:28:49;;;;;;;21.40;9.15;;;;;;;3.24;100.00;101665.44;2061905;28;40099;-72
2022/12/06 02:30:08;;;;;;;17.83;9.30;;;;;;;3.25;100.00;101669.88;2071886;28;37299;-72
2022/12/06 02:31:28;;;;;;;19.10;8.52;;;;;;;3.25;100.00;101664.59;2072061;28;38372;-72
2022/12/06 02:32:39;;;;;;;19.17;10.00;;;;;;;3.23;100.00;101661.91;2071616;28;34752;-72
2022/12/06 02:33:59;;;;;;;17.80;8.90;;;;;;;3.23;100.00;101656.63;2063644;28;36169;-72
2022/12/06 02:35:28;;;;;;;15.45;9.00;;;;;;;3.22;100.00;101659.22;2067372;28;39927;-72
2022/12/06 02:36:55;;;;;;;14.68;8.32;;;;;;;3.22;100.00;101664.53;2063006;28;36130;-72
2022/12/06 02:38:32;;;;;;;11.95;7.75;;;;;;;3.22;100.00;101662.75;2069959;28;38164;-72
2022/12/06 02:39:53;;;;;;;13.35;8.23;;;;;;;3.21;100.00;101657.44;2072497;28;20049;-72
2022/12/06 02:41:06;;;;;;;14.52;7.93;;;;;;;3.22;100.00;101651.28;2062829;28;39303;-73
2022/12/06 02:42:27;;;;;;;12.82;8.20;;;;;;;3.21;100.00;101649.50;2067164;28;38128;-73
2022/12/06 02:43:41;;;;;;;;;;;;;;;3.20;100.00;101658.31;2063815;28;32281;-73
2022/12/06 02:45:13;;;;;;;11.90;6.80;;;;;;;3.19;100.00;101653.88;2068569;28;20779;-72
2022/12/06 02:46:18;;;;;;;12.93;7.57;;;;;;;3.21;100.00;101652.13;2064003;28;36340;-73
2022/12/06 02:47:30;;;;;;;16.00;7.88;;;;;;;3.22;100.00;101656.59;2067463;28;32887;-73
2022/12/06 02:48:33;;;;;;;16.35;7.80;;;;;;;3.21;100.00;101661.00;2063632;28;35337;-72
2022/12/06 02:49:43;;;;;;;15.20;8.60;;;;;;;3.20;100.00;101650.38;2056632;28;35494;-72
2022/12/06 02:50:56;;;;;;;11.95;7.40;;;;;;;3.19;100.00;101651.22;2057437;28;32387;-72
2022/12/06 02:51:58;;;;;;;11.93;7.07;;;;;;;3.19;100.00;101659.16;2066386;28;30701;-72
2022/12/06 02:53:04;;;;;;;12.70;6.80;;;;;;;3.18;100.00;101654.75;2064211;28;20039;-72
2022/12/06 02:54:09;;;;;;;11.48;7.85;;;;;;;3.18;100.00;101649.47;2064153;28;31530;-72
2022/12/06 02:55:15;;;;;;;12.85;6.88;;;;;;;3.17;100.00;101658.25;2063231;28;31677;-72
2022/12/06 02:56:18;;;;;;;14.20;7.63;;;;;;;3.17;100.00;101656.47;2056603;28;36321;-72
2022/12/06 02:57:41;;;;;;;12.77;7.05;;;;;;;3.18;100.00;101653.00;2056023;28;34935;-72
2022/12/06 02:58:46;;;;;;;11.05;6.78;;;;;;;3.17;100.00;101651.19;2059300;28;20043;-72
2022/12/06 02:59:53;;;;;;;11.75;5.82;;;;;;;3.16;100.00;101659.09;2066170;28;35641;-72
2022/12/06 03:01:01;;;;;;;11.38;6.53;;;;;;;3.15;100.00;101652.03;2072280;28;20046;-72
2022/12/06 03:02:09;;;;;;;11.23;5.90;;;;;;;3.15;100.00;101658.22;2079876;28;30391;-72
2022/12/06 03:03:14;;;;;;;9.38;5.55;;;;;;;3.13;100.00;101654.66;2077150;28;34376;-72
2022/12/06 03:04:49;;;;;;;13.98;6.30;;;;;;;3.16;100.00;101656.44;2072460;28;20140;-72
2022/12/06 03:06:03;;;;;;;11.80;6.20;;;;;;;3.15;100.00;101659.97;2071631;28;32055;-72
2022/12/06 03:07:35;;;;;;;11.32;6.40;;;;;;;3.12;100.00;101654.63;2072795;28;24625;-73
2022/12/06 03:09:04;;;;;;;11.68;6.18;;;;;;;3.16;100.00;101669.69;2072304;28;33303;-74
2022/12/06 03:10:34;;;;;;;9.70;5.70;;;;;;;3.16;100.00;101669.69;2063959;28;34756;-74
2022/12/06 03:12:21;;;;;;;10.60;5.97;;;;;;;3.13;100.00;101661.72;2064624;28;21582;-74
2022/12/06 03:13:33;;;;;;;12.05;6.18;;;;;;;3.14;100.00;101663.47;2063791;28;40289;-73
2022/12/06 03:14:47;;;;;;;11.40;5.93;;;;;;;3.14;100.00;101666.13;2055235;28;35586;-74
2022/12/06 03:16:23;;;;;;;12.25;6.68;;;;;;;3.14;100.00;101666.13;2058620;28;33352;-73
2022/12/06 03:17:51;;;;;;;9.52;5.65;;;;;;;3.11;100.00;101663.44;2063646;28;39252;-72
2022/12/06 03:19:14;;;;;;;12.48;6.32;;;;;;;3.12;100.00;101662.56;2064449;28;28827;-72
2022/12/06 03:20:50;;;;;;;9.90;6.45;;;;;;;3.12;100.00;101663.44;2064524;28;20869;-73
2022/12/06 03:22:10;;;;;;;14.48;5.95;;;;;;;3.10;100.00;101666.94;2055681;28;20154;-73
2022/12/06 03:23:23;;;;;;;11.02;5.88;;;;;;;3.09;100.00;101658.09;2063105;28;20035;-72
2022/12/06 03:24:27;;;;;;;11.55;6.18;;;;;;;3.11;100.00;101660.78;2054329;28;41097;-73
2022/12/06 03:25:32;;;;;;;11.48;6.45;;;;;;;3.09;100.00;101662.47;2056343;28;36136;-75
2022/12/06 03:26:37;;;;;;;10.93;6.35;;;;;;;3.09;100.00;101665.13;2055066;28;31305;-75
2022/12/06 03:27:41;;;;;;;12.07;6.28;;;;;;;3.09;100.00;101659.84;2056306;28;31465;-72
2022/12/06 03:28:46;;;;;;;11.50;6.65;;;;;;;3.10;100.00;101659.00;2054892;28;35818;-72
2022/12/06 03:29:56;;;;;;;13.45;7.03;;;;;;;3.06;100.00;101652.75;2056183;28;38247;-74
2022/12/06 03:31:03;;;;;;;10.85;6.32;;;;;;;3.07;100.00;101654.53;2063172;28;34138;-74
2022/12/06 03:32:07;;;;;;;13.15;7.00;;;;;;;3.07;100.00;101646.63;2063666;28;37981;-75
2022/12/06 03:33:13;;;;;;;11.93;6.22;;;;;;;3.06;100.00;101648.34;2063209;28;36333;-73
2022/12/06 03:34:31;;;;;;;10.95;6.32;;;;;;;3.08;100.00;101655.44;2055348;28;26249;-73
2022/12/06 03:35:34;;;;;;;13.20;6.50;;;;;;;3.08;100.00;101647.50;2057901;28;32909;-73
2022/12/06 03:36:38;;;;;;;10.07;6.57;;;;;;;3.08;100.00;101650.13;2055791;28;20044;-72
2022/12/06 03:37:45;;;;;;;13.18;7.13;;;;;;;3.07;100.00;101654.53;2055639;28;35745;-74
2022/12/06 03:38:57;;;;;;;12.25;6.63;;;;;;;3.09;100.00;101651.91;2054981;28;35697;-73
2022/12/06 03:40:20;;;;;;;11.05;6.70;;;;;;;3.08;100.00;101653.66;2057702;28;20040;-73
2022/12/06 03:41:27;;;;;;;10.23;6.25;;;;;;;3.09;100.00;101654.53;2054561;28;37186;-73
2022/12/06 03:42:30;;;;;;;13.43;6.97;;;;;;;3.09;100.00;101651.91;2058865;28;20043;-73
2022/12/06 03:43:33;;;;;;;13.55;6.63;;;;;;;3.09;100.00;101649.25;2054868;28;35698;-73
2022/12/06 03:44:35;;;;;;;11.55;6.60;;;;;;;3.08;100.00;101651.03;2054828;28;38727;-73
2022/12/06 03:45:54;;;;;;;12.88;6.95;;;;;;;3.08;100.00;101648.38;2054998;28;36244;-74
2022/12/06 03:47:07;;;;;;;12.13;6.75;;;;;;;3.08;100.00;101652.78;2057807;28;36640;-73
2022/12/06 03:48:20;;;;;;;11.07;6.47;;;;;;;3.06;100.00;101650.97;2054913;28;34794;-71
2022/12/06 03:49:39;;;;;;;11.00;6.68;;;;;;;3.07;100.00;101651.91;2057938;28;35507;-73
2022/12/06 03:50:52;;;;;;;11.27;5.78;;;;;;;3.09;100.00;101657.19;2055282;28;36493;-73
2022/12/06 03:51:59;;;;;;;11.25;6.80;;;;;;;3.09;100.00;101651.91;2058039;28;38779;-73
2022/12/06 03:53:01;;;;;;;13.32;6.35;;;;;;;3.09;100.00;101657.19;2062928;28;37276;-73
2022/12/06 03:54:06;;;;;;;12.88;6.70;;;;;;;3.08;100.00;101658.06;2064156;28;20916;-73
2022/12/06 03:55:08;;;;;;;10.38;6.47;;;;;;;3.08;100.00;101655.44;2054942;28;30843;-74
2022/12/06 03:56:10;;;;;;;11.65;6.53;;;;;;;3.07;100.00;101654.53;2055321;28;28474;-73
2022/12/06 03:57:11;;;;;;;13.95;6.95;;;;;;;3.06;100.00;101653.63;2064409;28;20050;-73
2022/12/06 03:58:13;;;;;;;12.35;6.57;;;;;;;3.06;100.00;101650.09;2063734;28;31095;-73
2022/12/06 03:59:15;;;;;;;12.35;6.88;;;;;;;3.06;100.00;101652.75;2063458;28;34910;-73
2022/12/06 04:00:18;;;;;;;10.13;6.10;;;;;;;3.05;100.00;101646.56;2064160;28;20946;-73
2022/12/06 04:01:19;;;;;;;9.55;6.55;;;;;;;3.06;100.00;101648.34;2063135;28;36834;-73
2022/12/06 04:02:21;;;;;;;12.23;6.38;;;;;;;3.07;100.00;101649.25;2064327;28;20047;-73
2022/12/06 04:03:23;;;;;;;9.60;5.85;;;;;;;3.04;100.00;101652.72;2063592;28;39116;-73
2022/12/06 04:04:25;;;;;;;11.25;6.07;;;;;;;3.05;100.00;101651.88;2063181;28;36992;-73
2022/12/06 04:05:29;;;;;;;10.77;6.32;;;;;;;3.03;100.00;101648.31;2064546;28;35891;-73
2022/12/06 04:06:30;;;;;;;9.57;5.78;;;;;;;3.04;100.00;101639.50;2063162;28;33053;-72
2022/12/06 04:07:32;;;;;;;10.30;6.00;;;;;;;3.05;100.00;101640.38;2063790;28;35679;-73
2022/12/06 04:08:34;;;;;;;11.05;6.30;;;;;;;3.05;100.00;101643.00;2063595;28;29222;-72
2022/12/06 04:09:51;;;;;;;10.75;5.63;;;;;;;3.04;100.00;101644.78;2070286;28;30512;-73
2022/12/06 04:10:53;;;;;;;11.15;6.18;;;;;;;3.04;100.00;101639.50;2071711;28;34742;-73
2022/12/06 04:11:57;;;;;;;9.43;6.05;;;;;;;3.04;100.00;101636.84;2071783;28;35691;-73
2022/12/06 04:12:59;;;;;;;10.25;6.10;;;;;;;3.03;100.00;101636.81;2071969;28;20669;-73
2022/12/06 04:14:01;;;;;;;11.10;6.13;;;;;;;3.05;100.00;101641.28;2071574;28;32304;-73
2022/12/06 04:15:05;;;;;;;10.43;6.28;;;;;;;3.04;100.00;101635.97;2071718;28;29996;-72
2022/12/06 04:18:09;;;;;;;10.93;5.72;;;;;;;3.04;100.00;101643.91;2063345;28;27638;-73
2022/12/06 04:18:49;;;;;;;9.80;5.40;;;;;;;3.02;100.00;101646.50;2072013;28;20042;-73
2022/12/06 04:19:51;;;;;;;8.70;5.63;;;;;;;3.02;100.00;101640.34;2071936;28;20908;-73
2022/12/06 04:23:51;;;;;;;11.85;5.18;;;;;;;3.01;100.00;101639.41;2062936;28;40994;-73
2022/12/06 04:24:52;;;;;;;7.00;4.95;;;;;;;3.01;100.00;101650.00;2067088;28;20796;-73
2022/12/06 04:25:54;;;;;;;10.32;5.20;;;;;;;3.02;100.00;101645.63;2070879;28;37473;-73
2022/12/06 04:28:40;;;;;;;6.85;4.38;;;;;;;3.01;100.00;101644.72;2071573;28;35089;-73
2022/12/06 04:39:07;;;;;;;10.77;5.68;;;;;;;2.98;100.00;101643.75;2071768;28;35127;-73
2022/12/06 04:40:10;;;;;;;8.38;5.82;;;;;;;2.98;100.00;101642.03;2071257;28;35797;-73
2022/12/06 04:43:55;;;;;;;11.55;5.70;;;;;;;2.96;100.00;101641.13;2071469;28;36626;-72
2022/12/06 04:44:57;;;;;;;9.05;5.85;;;;;;;2.96;100.00;101638.47;2071573;28;37367;-73
2022/12/06 04:46:01;;;;;;;11.80;6.03;;;;;;;2.95;100.00;101634.03;2071877;28;20058;-73
2022/12/06 04:47:04;;;;;;;11.98;6.40;;;;;;;2.95;100.00;101634.03;2072042;28;27325;-73
2022/12/06 04:48:06;;;;;;;12.98;6.20;;;;;;;2.97;100.00;101628.78;2071629;28;27330;-73
2022/12/06 04:49:08;;;;;;;12.82;7.18;;;;;;;2.97;100.00;101626.13;2071512;28;33375;-73
2022/12/06 04:50:10;;;;;;;12.50;6.93;;;;;;;2.97;100.00;101631.41;2071070;28;37175;-72
2022/12/06 04:51:11;;;;;;;12.27;6.68;;;;;;;2.96;100.00;101629.63;2071814;28;31391;-72
2022/12/06 04:52:13;;;;;;;13.20;6.72;;;;;;;2.93;100.00;101626.94;2070757;28;37322;-73
2022/12/06 04:53:16;;;;;;;13.02;6.72;;;;;;;2.94;100.00;101629.59;2072014;28;32368;-74
2022/12/06 04:54:18;;;;;;;11.38;7.22;;;;;;;2.94;100.00;101628.69;2071369;28;30637;-73
2022/12/06 04:55:19;;;;;;;12.45;7.22;;;;;;;2.93;100.00;101627.81;2071101;28;39160;-73
2022/12/06 04:56:21;;;;;;;10.75;6.45;;;;;;;2.94;100.00;101629.59;2072020;28;28618;-73
2022/12/06 04:57:25;;;;;;;11.73;7.32;;;;;;;2.93;100.00;101633.09;2071396;28;32255;-73
2022/12/06 04:58:26;;;;;;;12.65;6.95;;;;;;;2.94;100.00;101631.34;2071256;28;37156;-73
2022/12/06 04:59:28;;;;;;;12.45;7.30;;;;;;;2.92;100.00;101628.66;2071638;28;32243;-73
2022/12/06 05:00:31;;;;;;;13.77;7.82;;;;;;;2.91;100.00;101629.53;2071192;28;34985;-73
2022/12/06 05:01:32;;;;;;;17.55;7.32;;;;;;;2.91;100.00;101634.84;2071565;28;32924;-73
2022/12/06 05:02:34;;;;;;;13.73;7.60;;;;;;;2.92;100.00;101625.13;2071066;28;37653;-73
2022/12/06 05:03:36;;;;;;;11.98;6.97;;;;;;;2.90;100.00;101627.75;2072274;28;20898;-73
2022/12/06 05:04:44;;;;;;;14.68;7.78;;;;;;;2.90;100.00;101626.88;2071475;28;34008;-72
2022/12/06 05:05:46;;;;;;;12.77;7.43;;;;;;;2.89;100.00;101627.72;2071399;28;34510;-72
2022/12/06 05:06:48;;;;;;;13.43;7.13;;;;;;;2.90;100.00;101625.09;2071933;28;20046;-75
2022/12/06 05:07:49;;;;;;;10.73;7.43;;;;;;;2.90;100.00;101630.41;2071364;28;33255;-73
2022/12/06 05:08:53;;;;;;;15.18;7.78;;;;;;;2.89;100.00;101627.72;2071407;28;33332;-73
2022/12/06 05:09:55;;;;;;;12.27;7.22;;;;;;;2.89;100.00;101622.41;2071771;28;20046;-73
2022/12/06 05:10:59;;;;;;;16.88;7.70;;;;;;;2.88;100.00;101626.81;2071691;28;20065;-73
2022/12/06 05:12:01;;;;;;;15.10;7.90;;;;;;;2.86;100.00;101625.91;2071070;28;29480;-73
2022/12/06 05:13:06;;;;;;;13.52;8.05;;;;;;;2.84;100.00;101617.94;2063472;28;20081;-73
2022/12/06 05:14:07;;;;;;;14.55;7.85;;;;;;;2.85;100.00;101617.09;2063345;28;32751;-73
2022/12/06 05:15:10;;;;;;;17.02;8.32;;;;;;;2.86;100.00;101628.56;2063108;28;36090;-74
2022/12/06 05:16:15;;;;;;;13.38;7.63;;;;;;;2.85;100.00;101622.38;2063375;28;39749;-73
2022/12/06 05:17:17;;;;;;;15.20;8.70;;;;;;;2.86;100.00;101620.63;2063890;28;21034;-74
2022/12/06 05:18:19;;;;;;;13.32;8.40;;;;;;;2.85;100.00;101625.03;2064667;28;20057;-73
2022/12/06 05:19:23;;;;;;;14.35;7.60;;;;;;;2.86;100.00;101625.91;2062966;28;35108;-74
2022/12/06 05:20:25;;;;;;;14.07;7.95;;;;;;;2.86;100.00;101623.28;2063571;28;26403;-73
2022/12/06 05:21:26;;;;;;;14.52;8.30;;;;;;;2.86;100.00;101631.19;2062907;28;34684;-73
2022/12/06 05:22:33;;;;;;;12.45;7.45;;;;;;;2.87;100.00;101625.03;2063856;28;20944;-73
2022/12/06 05:23:35;;;;;;;14.65;7.72;;;;;;;2.86;100.00;101617.97;2063168;28;32975;-73
2022/12/06 05:24:39;;;;;;;13.35;7.75;;;;;;;2.85;100.00;101622.38;2063893;28;36077;-73
2022/12/06 05:25:41;;;;;;;12.55;7.78;;;;;;;2.86;100.00;101623.28;2062787;28;27790;-73
2022/12/06 05:26:43;;;;;;;14.35;8.45;;;;;;;2.85;100.00;101619.75;2063239;28;33232;-73